Terminal Aerodrome Forecast
Issued by NWS New Orleans/Baton Rouge, LA

Home | Current Version | Previous Version | Text Only | Print | Product List | Glossary On
Versions: 1 2 3 4 5 6 7 8 9 10 11 12 13 14 15 16 17 18 19 20 21 22 23
000
FTUS44 KLIX 290700 AAA
TAFNEW
TAF AMD
KNEW 290705Z 2907/3006 03015KT P6SM BKN040
     FM291100 02010KT P6SM BKN250
     FM291500 02008KT P6SM FEW045 SCT250
     FM292000 32005KT P6SM SCT250=

USA.gov is the U.S. government's official web portal to all federal, state and local government web resources and services.